WetterOnline ( http://www.wetteronline.de )

Wetter aktuell Oschatz

Aktuelles Wetter: Oschatz (152m)

6-stündlich | Neueste Meldungen
Ortszeit Temperatur Wetter
Do, 26.04. 20:00 8.9° C bewölkt
Do, 26.04. 14:00 12.7° C -
Do, 26.04. 8:00 9.3° C bedeckt
Do, 26.04. 2:00 9.6° C bedeckt
Mi, 25.04. 20:00 11.3° C leicht bewölkt
Mi, 25.04. 14:00 19.1° C wolkig
Mi, 25.04. 8:00 14.3° C wolkig
Mi, 25.04. 2:00 9.5° C bewölkt
Ortszeit Temperatur Wetter
Fr, 27.04. 0:30 8.9° C leichter Regen
Fr, 27.04. 0:20 8.9° C leichter Regen
Fr, 27.04. 0:10 8.2° C bedeckt
Fr, 27.04. 0:00 7.3° C bewölkt
Do, 26.04. 23:50 7.3° C bewölkt
Do, 26.04. 23:40 7.2° C bewölkt
Do, 26.04. 23:30 7.4° C bewölkt
Do, 26.04. 23:00 6.7° C bewölkt
Do, 26.04. 22:30 6.5° C leicht bewölkt
Do, 26.04. 22:00 6.6° C bewölkt
Do, 26.04. 21:30 6.9° C leicht bewölkt
Ortszeit Relative Feuchte Sichtweite
Do, 26.04. 20:00 75% 50 km
Do, 26.04. 14:00 59% 35 km
Do, 26.04. 8:00 90% 8 km
Do, 26.04. 2:00 92% 9 km
Mi, 25.04. 20:00 88% 15 km
Mi, 25.04. 14:00 50% 30 km
Mi, 25.04. 8:00 68% 30 km
Mi, 25.04. 2:00 89% 16 km
Ortszeit Relative Feuchte Sichtweite
Fr, 27.04. 0:30 74% 29 km
Fr, 27.04. 0:20 74% -
Fr, 27.04. 0:10 80% -
Fr, 27.04. 0:00 87% 28 km
Do, 26.04. 23:50 87% -
Do, 26.04. 23:40 86% -
Do, 26.04. 23:30 84% 30 km
Do, 26.04. 23:00 86% 28 km
Do, 26.04. 22:30 86% 30 km
Do, 26.04. 22:00 87% 30 km
Do, 26.04. 21:30 85% 35 km
Ortszeit Niederschlagsmenge Niederschlagsart
Do, 26.04. 20:00 1 l/m2 in 12 Std. Regen
Do, 26.04. 14:00 0.8 l/m2 in 6 Std. Regen
Do, 26.04. 8:00 0.1 l/m2 in 12 Std. Regen
Do, 26.04. 2:00 0.1 l/m2 in 6 Std. Regen
Mi, 25.04. 20:00 3 l/m2 in 12 Std. Regen
Mi, 25.04. 14:00 0.0 l/m2 in 6 Std. -
Mi, 25.04. 8:00 0.0 l/m2 in 12 Std. -
Mi, 25.04. 2:00 0.0 l/m2 in 6 Std. -
Ortszeit Niederschlagsmenge Niederschlagsart
Fr, 27.04. 0:30 0.1 l/m2 in 1 Std. -
Fr, 27.04. 0:20 keine Meldung -
Fr, 27.04. 0:10 keine Meldung -
Fr, 27.04. 0:00 0.1 l/m2 in 1 Std. Regen
Do, 26.04. 23:50 keine Meldung -
Do, 26.04. 23:40 keine Meldung -
Do, 26.04. 23:30 0.1 l/m2 in 1 Std. Schneeregen
Do, 26.04. 23:00 0.0 l/m2 in 1 Std. -
Do, 26.04. 22:30 0.0 l/m2 in 1 Std. -
Do, 26.04. 22:00 0.0 l/m2 in 1 Std. -
Do, 26.04. 21:30 0.0 l/m2 in 1 Std. -
Ortszeit Stärke Spitze Richtung
km/h Bft. km/h Grad Sektor
Do, 26.04. 20:00 13 3 61 260° W
Do, 26.04. 14:00 31 5 56 260° W
Do, 26.04. 8:00 11 2 19 240° SW
Do, 26.04. 2:00 4 1 14 240° SW
Mi, 25.04. 20:00 7 2 61 230° SW
Mi, 25.04. 14:00 40 6 61 250° W
Mi, 25.04. 8:00 15 3 26 220° SW
Mi, 25.04. 2:00 7 2 11 190° S
Ortszeit Stärke Spitze Richtung
km/h Bft. km/h Grad Sektor
Fr, 27.04. 0:30 14 3 25 290° W
Fr, 27.04. 0:20 14 3 - 290° W
Fr, 27.04. 0:10 13 3 - 280° W
Fr, 27.04. 0:00 7 2 17 230° SW
Do, 26.04. 23:50 7 2 - 230° SW
Do, 26.04. 23:40 7 2 - 220° SW
Do, 26.04. 23:30 7 2 14 250° W
Do, 26.04. 23:00 9 2 13 250° W
Do, 26.04. 22:30 9 2 13 240° SW
Do, 26.04. 22:00 6 1 11 210° SW
Do, 26.04. 21:30 7 2 11 220° SW
Ortszeit Untergrenze Bedeckung Gattung
total tief tief mittel hoch
Do, 26.04. 20:00 1800 m 7/8 7/8 - - -
Do, 26.04. 14:00 - - - - - -
Do, 26.04. 8:00 1500 m 8/8 8/8 - - -
Do, 26.04. 2:00 1350 m 8/8 8/8 - - -
Mi, 25.04. 20:00 1380 m 2/8 1/8 - - -
Mi, 25.04. 14:00 1500 m 7/8 5/8 - - -
Mi, 25.04. 8:00 3900 m 6/8 6/8 - - -
Mi, 25.04. 2:00 2700 m 7/8 7/8 - - -
Ortszeit Bedeckungsgrad in Achtel und Wolkenuntergrenze
Fr, 27.04. 0:30 1(1080m) 7(2100m) 8(2700m)
Fr, 27.04. 0:20 1(1080m) 7(2100m) 8(2700m)
Fr, 27.04. 0:10 1(1380m) 6(1500m) 8(2100m)
Fr, 27.04. 0:00 5(1500m) 7(1800m) 8(3000m)
Do, 26.04. 23:50 5(1500m) 7(1800m) 8(3000m)
Do, 26.04. 23:40 3(1500m) 7(2400m) 8(3000m)
Do, 26.04. 23:30 1(1800m) 6(2100m) 8(3000m)
Do, 26.04. 23:00 7(2700m)
Do, 26.04. 22:30 3(1800m) 3(2100m)
Do, 26.04. 22:00 1(1500m) 7(2700m) 8(2700m)
Do, 26.04. 21:30 3(2700m)
Ortszeit Luftdruck NN (hPa) Tendenz (hPa in 3 Std.)
Do, 26.04. 20:00 1017 + 1,3
Do, 26.04. 14:00 1015 + 0,5
Do, 26.04. 8:00 1013 + 0,7
Do, 26.04. 2:00 1013 + 0,6
Mi, 25.04. 20:00 1011 + 1,5
Mi, 25.04. 14:00 1007 - 0,3
Mi, 25.04. 8:00 1009 - 0,8
Mi, 25.04. 2:00 1012 - 2,1
Ortszeit Luftdruck NN (hPa) Tendenz (hPa in 3 Std.)
Fr, 27.04. 0:30 1019 + 0,9
Fr, 27.04. 0:20 1019 keine Meldung
Fr, 27.04. 0:10 1019 keine Meldung
Fr, 27.04. 0:00 1019 + 0,9
Do, 26.04. 23:50 1019 keine Meldung
Do, 26.04. 23:40 1018 keine Meldung
Do, 26.04. 23:30 1018 + 0,9
Do, 26.04. 23:00 1018 + 1,3
Do, 26.04. 22:30 1018 + 1,3
Do, 26.04. 22:00 1018 + 2,0
Do, 26.04. 21:30 1018 + 1,7
Ortszeit Schneehöhe (cm)
Do, 26.04. 20:00 0
Do, 26.04. 14:00 0
Do, 26.04. 8:00 0
Do, 26.04. 2:00 0
Mi, 25.04. 20:00 0
Mi, 25.04. 14:00 0
Mi, 25.04. 8:00 0
Mi, 25.04. 2:00 0
Ortszeit Schneehöhe (cm)
Fr, 27.04. 0:30 0
Fr, 27.04. 0:20 0
Fr, 27.04. 0:10 0
Fr, 27.04. 0:00 0
Do, 26.04. 23:50 0
Do, 26.04. 23:40 0
Do, 26.04. 23:30 0
Do, 26.04. 23:00 0
Do, 26.04. 22:30 0
Do, 26.04. 22:00 0
Do, 26.04. 21:30 0
Link zu dieser Seite / Seite empfehlen

Das Wetter in ...